createdAt,value
2019-03-09T00:00:10.409Z,1000.43
2019-03-09T00:01:10.394Z,1000.42
2019-03-09T00:02:10.395Z,1000.39
2019-03-09T00:03:10.585Z,1000.50
2019-03-09T00:04:10.373Z,1000.42
2019-03-09T00:05:10.364Z,1000.46
2019-03-09T00:06:10.558Z,1000.36
2019-03-09T00:07:10.350Z,1000.33
2019-03-09T00:10:10.329Z,1000.28
2019-03-09T00:11:10.313Z,1000.14
2019-03-09T00:13:10.304Z,1000.08
2019-03-09T00:14:10.296Z,1000.07
2019-03-09T00:17:10.274Z,1000.05
2019-03-09T00:18:10.257Z,1000.06
2019-03-09T00:19:10.252Z,1000.01
2019-03-09T00:20:10.239Z,999.96
2019-03-09T00:21:10.238Z,1000.01
2019-03-09T00:22:10.223Z,1000.03
2019-03-09T00:23:43.431Z,999.99
2019-03-09T00:24:10.206Z,999.96
2019-03-09T00:25:10.608Z,999.89
2019-03-09T00:26:10.192Z,999.91
2019-03-09T00:27:10.185Z,999.90
2019-03-09T00:28:10.385Z,999.86
2019-03-09T00:29:10.172Z,999.78
2019-03-09T00:30:10.163Z,999.77
2019-03-09T00:31:10.151Z,999.79
2019-03-09T00:32:10.147Z,999.73
2019-03-09T00:33:11.355Z,999.76
2019-03-09T00:35:10.122Z,999.69
2019-03-09T00:36:10.312Z,999.65
2019-03-09T00:40:10.080Z,999.60
2019-03-09T00:41:10.068Z,999.60
2019-03-09T00:43:10.254Z,999.54
2019-03-09T00:44:10.045Z,999.55
2019-03-09T00:45:10.037Z,999.56
2019-03-09T00:46:10.032Z,999.55
2019-03-09T00:48:10.014Z,999.52
2019-03-09T00:49:11.291Z,999.42
2019-03-09T00:50:09.994Z,999.38
2019-03-09T00:51:09.988Z,999.47
2019-03-09T00:52:10.185Z,999.38
2019-03-09T00:53:09.977Z,999.41
2019-03-09T00:54:09.961Z,999.37
2019-03-09T00:55:09.952Z,999.48
2019-03-09T00:58:09.937Z,999.41
2019-03-09T00:59:09.940Z,999.35
2019-03-09T01:00:09.912Z,999.37
2019-03-09T01:01:09.903Z,999.25
2019-03-09T01:02:09.901Z,999.27
2019-03-09T01:03:09.887Z,999.23
2019-03-09T01:04:09.884Z,999.24
2019-03-09T01:05:09.879Z,999.24
2019-03-09T01:07:09.859Z,999.23
2019-03-09T01:08:09.847Z,999.16
2019-03-09T01:09:09.842Z,999.17
2019-03-09T01:10:09.830Z,999.30
2019-03-09T01:11:09.826Z,999.20
2019-03-09T01:14:09.798Z,999.10
2019-03-09T01:15:09.791Z,999.12
2019-03-09T01:17:09.775Z,999.08
2019-03-09T01:18:09.769Z,999.04
2019-03-09T01:19:09.760Z,999.04
2019-03-09T01:20:09.747Z,998.93
2019-03-09T01:22:09.731Z,998.88
2019-03-09T01:24:09.720Z,998.79
2019-03-09T01:25:09.702Z,998.82
2019-03-09T01:26:09.702Z,998.62
2019-03-09T01:27:09.893Z,998.68
2019-03-09T01:28:09.683Z,998.67
2019-03-09T01:29:09.677Z,998.70
2019-03-09T01:30:09.667Z,998.65
2019-03-09T01:31:09.656Z,998.74
2019-03-09T01:32:09.648Z,998.65
2019-03-09T01:34:10.843Z,998.54
2019-03-09T01:35:09.623Z,998.50
2019-03-09T01:36:09.612Z,998.44
2019-03-09T01:37:09.610Z,998.48
2019-03-09T01:38:09.602Z,998.50
2019-03-09T01:40:09.586Z,998.42
2019-03-09T01:41:09.573Z,998.49
2019-03-09T01:42:09.563Z,998.34
2019-03-09T01:44:09.547Z,998.39
2019-03-09T01:45:09.544Z,998.35
2019-03-09T01:47:09.520Z,998.32
2019-03-09T01:48:09.518Z,998.29
2019-03-09T01:49:09.508Z,998.25
2019-03-09T01:50:09.503Z,998.13
2019-03-09T01:51:09.488Z,998.31
2019-03-09T01:52:09.484Z,998.33
2019-03-09T01:53:09.676Z,998.25
2019-03-09T01:54:09.458Z,998.28
2019-03-09T01:56:09.443Z,998.22
2019-03-09T01:58:09.429Z,998.21
2019-03-09T01:59:09.419Z,998.16
2019-03-09T02:00:09.414Z,998.17
2019-03-09T02:01:09.407Z,998.19
2019-03-09T02:02:09.598Z,998.04
2019-03-09T02:03:09.384Z,997.89
2019-03-09T02:04:09.382Z,997.85
2019-03-09T02:05:09.573Z,997.74
2019-03-09T02:06:09.359Z,997.77
2019-03-09T02:07:09.353Z,997.74
2019-03-09T02:08:09.343Z,997.59
2019-03-09T02:09:09.331Z,997.74
2019-03-09T02:10:09.330Z,997.71
2019-03-09T02:11:09.319Z,997.76
2019-03-09T02:12:09.314Z,997.77
2019-03-09T02:13:09.303Z,997.63
2019-03-09T02:14:09.288Z,997.65
2019-03-09T02:16:09.278Z,997.57
2019-03-09T02:17:09.269Z,997.56
2019-03-09T02:18:09.254Z,997.52
2019-03-09T02:19:42.462Z,997.49
2019-03-09T02:20:09.246Z,997.50
2019-03-09T02:21:09.242Z,997.47
2019-03-09T02:23:09.420Z,997.51
2019-03-09T02:24:09.208Z,997.42
2019-03-09T02:25:09.202Z,997.57
2019-03-09T02:26:09.192Z,997.49
2019-03-09T02:27:09.183Z,997.59
2019-03-09T02:28:09.174Z,997.43
2019-03-09T02:29:09.165Z,997.50
2019-03-09T02:30:09.169Z,997.43
2019-03-09T02:31:09.155Z,997.54
2019-03-09T02:32:09.145Z,997.46
2019-03-09T02:33:09.130Z,997.39
2019-03-09T02:34:09.127Z,997.42
2019-03-09T02:35:09.109Z,997.35
2019-03-09T02:36:09.108Z,997.40
2019-03-09T02:37:09.105Z,997.31
2019-03-09T02:39:09.081Z,997.27
2019-03-09T02:40:09.079Z,997.34
2019-03-09T02:41:09.062Z,997.22
2019-03-09T02:42:09.059Z,997.23
2019-03-09T02:44:09.241Z,997.20
2019-03-09T02:45:09.026Z,997.27
2019-03-09T02:46:09.026Z,997.24
2019-03-09T02:47:09.015Z,997.21
2019-03-09T02:48:09.005Z,997.28
2019-03-09T02:49:08.999Z,997.18
2019-03-09T02:50:08.986Z,997.27
2019-03-09T02:51:08.981Z,997.32
2019-03-09T02:52:08.972Z,997.16
2019-03-09T02:53:08.959Z,997.18
2019-03-09T02:54:08.964Z,997.15
2019-03-09T02:55:08.943Z,997.15
2019-03-09T02:56:09.142Z,997.19
2019-03-09T02:57:09.133Z,997.26
2019-03-09T02:59:08.907Z,997.19
2019-03-09T03:00:08.908Z,997.20
2019-03-09T03:01:08.945Z,997.24
2019-03-09T03:02:09.081Z,997.28
2019-03-09T03:03:09.081Z,997.14
2019-03-09T03:04:08.870Z,997.22
2019-03-09T03:05:09.056Z,997.04
2019-03-09T03:06:08.864Z,997.24
2019-03-09T03:07:08.859Z,997.20
2019-03-09T03:08:08.841Z,997.17
2019-03-09T03:09:08.846Z,997.15
2019-03-09T03:10:08.816Z,997.19
2019-03-09T03:11:08.813Z,997.10
2019-03-09T03:12:08.800Z,997.02
2019-03-09T03:13:09.016Z,997.06
2019-03-09T03:14:08.780Z,997.11
2019-03-09T03:16:08.764Z,997.35
2019-03-09T03:18:08.749Z,997.18
2019-03-09T03:19:41.953Z,997.09
2019-03-09T03:20:08.737Z,997.23
2019-03-09T03:21:08.723Z,997.39
2019-03-09T03:22:08.726Z,997.16
2019-03-09T03:23:08.911Z,997.15
2019-03-09T03:24:08.698Z,997.13
2019-03-09T03:25:08.693Z,997.00
2019-03-09T03:26:08.686Z,997.28
2019-03-09T03:27:08.675Z,997.14
2019-03-09T03:29:08.656Z,997.13
2019-03-09T03:30:08.649Z,997.08
2019-03-09T03:31:08.639Z,997.04
2019-03-09T03:33:08.619Z,997.01
2019-03-09T03:34:08.612Z,997.08
2019-03-09T03:35:08.625Z,996.96
2019-03-09T03:36:08.823Z,996.97
2019-03-09T03:37:08.797Z,997.11
2019-03-09T03:38:08.582Z,996.98
2019-03-09T03:39:08.579Z,997.08
2019-03-09T03:40:08.773Z,996.77
2019-03-09T03:41:08.558Z,996.96
2019-03-09T03:42:08.748Z,996.90
2019-03-09T03:43:08.542Z,996.91
2019-03-09T03:46:08.519Z,996.75
2019-03-09T03:49:08.493Z,996.85
2019-03-09T03:50:08.487Z,996.86
2019-03-09T03:51:08.479Z,996.91
2019-03-09T03:53:08.532Z,996.95
2019-03-09T03:55:08.843Z,997.01
2019-03-09T03:56:08.636Z,996.98
2019-03-09T03:57:08.429Z,996.91
2019-03-09T03:58:08.420Z,997.00
2019-03-09T03:59:08.409Z,996.98
2019-03-09T04:00:08.406Z,996.96
2019-03-09T04:01:08.815Z,996.99
2019-03-09T04:02:08.388Z,997.01
2019-03-09T04:03:08.580Z,997.06
2019-03-09T04:04:08.373Z,996.97
2019-03-09T04:05:08.565Z,996.96
2019-03-09T04:06:08.351Z,996.91
2019-03-09T04:07:08.351Z,997.00
2019-03-09T04:08:08.338Z,997.12
2019-03-09T04:09:08.325Z,997.11
2019-03-09T04:10:08.323Z,997.10
2019-03-09T04:11:08.313Z,997.19
2019-03-09T04:12:08.301Z,997.11
2019-03-09T04:13:08.504Z,997.12
2019-03-09T04:14:08.287Z,997.09
2019-03-09T04:16:08.270Z,997.11
2019-03-09T04:17:08.263Z,997.24
2019-03-09T04:18:08.259Z,997.25
2019-03-09T04:19:08.252Z,997.18
2019-03-09T04:20:08.250Z,997.34
2019-03-09T04:21:08.433Z,997.17
2019-03-09T04:22:08.219Z,997.30
2019-03-09T04:23:08.220Z,997.22
2019-03-09T04:24:08.410Z,997.15
2019-03-09T04:25:08.411Z,997.25
2019-03-09T04:26:08.192Z,997.25
2019-03-09T04:27:08.181Z,997.26
2019-03-09T04:28:08.178Z,997.34
2019-03-09T04:29:08.171Z,997.30
2019-03-09T04:30:08.161Z,997.42
2019-03-09T04:31:08.157Z,997.27
2019-03-09T04:33:08.137Z,997.39
2019-03-09T04:34:08.323Z,997.34
2019-03-09T04:35:08.119Z,997.47
2019-03-09T04:36:08.113Z,997.54
2019-03-09T04:37:08.102Z,997.54
2019-03-09T04:38:08.095Z,997.51
2019-03-09T04:39:08.089Z,997.59
2019-03-09T04:40:08.075Z,997.61
2019-03-09T04:42:08.060Z,997.57
2019-03-09T04:43:08.057Z,997.79
2019-03-09T04:45:08.040Z,997.76
2019-03-09T04:46:08.027Z,997.79
2019-03-09T04:47:08.022Z,997.75
2019-03-09T04:48:08.012Z,997.79
2019-03-09T04:50:07.998Z,997.89
2019-03-09T04:52:07.986Z,997.75
2019-03-09T04:53:07.976Z,997.83
2019-03-09T04:54:08.164Z,997.67
2019-03-09T04:55:07.954Z,997.73
2019-03-09T04:56:07.953Z,997.72
2019-03-09T04:57:07.940Z,997.87
2019-03-09T04:58:07.931Z,997.87
2019-03-09T04:59:07.923Z,997.80
2019-03-09T05:01:08.108Z,997.93
2019-03-09T05:02:07.908Z,997.97
2019-03-09T05:03:07.894Z,998.02
2019-03-09T05:05:07.876Z,998.15
2019-03-09T05:06:08.074Z,998.12
2019-03-09T05:08:07.860Z,998.26
2019-03-09T05:09:07.847Z,998.32
2019-03-09T05:10:07.840Z,998.25
2019-03-09T05:11:07.835Z,998.34
2019-03-09T05:13:07.816Z,998.30
2019-03-09T05:14:09.019Z,998.31
2019-03-09T05:15:08.001Z,998.26
2019-03-09T05:16:07.797Z,998.33
2019-03-09T05:17:07.782Z,998.37
2019-03-09T05:18:07.783Z,998.38
2019-03-09T05:19:07.772Z,998.38
2019-03-09T05:20:07.761Z,998.38
2019-03-09T05:21:07.750Z,998.39
2019-03-09T05:22:07.746Z,998.37
2019-03-09T05:23:07.740Z,998.39
2019-03-09T05:24:07.728Z,998.50
2019-03-09T05:25:07.721Z,998.47
2019-03-09T05:27:07.710Z,998.50
2019-03-09T05:28:07.702Z,998.48
2019-03-09T05:29:07.694Z,998.40
2019-03-09T05:30:07.690Z,998.46
2019-03-09T05:33:07.662Z,998.52
2019-03-09T05:35:07.641Z,998.50
2019-03-09T05:36:07.691Z,998.49
2019-03-09T05:37:07.627Z,998.56
2019-03-09T05:38:07.622Z,998.53
2019-03-09T05:40:07.602Z,998.53
2019-03-09T05:41:07.601Z,998.48
2019-03-09T05:42:07.592Z,998.38
2019-03-09T05:43:07.586Z,998.36
2019-03-09T05:44:07.571Z,998.41
2019-03-09T05:45:07.570Z,998.44
2019-03-09T05:46:07.560Z,998.37
2019-03-09T05:47:07.556Z,998.35
2019-03-09T05:48:07.746Z,998.41
2019-03-09T05:49:07.532Z,998.40
2019-03-09T05:50:07.526Z,998.46
2019-03-09T05:51:07.520Z,998.41
2019-03-09T05:52:07.719Z,998.42
2019-03-09T05:53:07.506Z,998.50
2019-03-09T05:54:07.495Z,998.45
2019-03-09T05:55:07.491Z,998.51
2019-03-09T05:56:07.897Z,998.58
2019-03-09T05:57:07.522Z,998.58
2019-03-09T05:58:07.474Z,998.66
2019-03-09T05:59:07.512Z,998.71
2019-03-09T06:00:07.470Z,998.75
2019-03-09T06:02:07.839Z,998.87
2019-03-09T06:03:07.428Z,998.92
2019-03-09T06:04:07.423Z,998.97
2019-03-09T06:05:07.411Z,999.02
2019-03-09T06:06:07.625Z,999.04
2019-03-09T06:07:07.399Z,999.03
2019-03-09T06:08:07.388Z,999.05
2019-03-09T06:10:07.379Z,998.97
2019-03-09T06:11:07.366Z,999.00
2019-03-09T06:13:07.361Z,998.96
2019-03-09T06:14:07.551Z,999.08
2019-03-09T06:15:07.333Z,999.01
2019-03-09T06:16:07.380Z,999.14
2019-03-09T06:18:07.310Z,999.09
2019-03-09T06:19:07.304Z,999.03
2019-03-09T06:20:07.302Z,998.93
2019-03-09T06:22:07.285Z,998.90
2019-03-09T06:23:07.480Z,998.87
2019-03-09T06:24:07.474Z,998.89
2019-03-09T06:28:07.265Z,998.99
2019-03-09T06:29:07.232Z,999.07
2019-03-09T06:30:07.223Z,999.12
2019-03-09T06:31:07.423Z,999.18
2019-03-09T06:32:07.210Z,999.16
2019-03-09T06:33:07.207Z,999.16
2019-03-09T06:34:07.198Z,999.18
2019-03-09T06:35:07.188Z,999.20
2019-03-09T06:36:07.179Z,999.28
2019-03-09T06:37:07.173Z,999.23
2019-03-09T06:38:07.169Z,999.30
2019-03-09T06:39:07.160Z,999.26
2019-03-09T06:40:07.150Z,999.33
2019-03-09T06:41:07.348Z,999.30
2019-03-09T06:43:07.129Z,999.30
2019-03-09T06:44:07.122Z,999.39
2019-03-09T06:45:07.118Z,999.39
2019-03-09T06:46:07.108Z,999.45
2019-03-09T06:47:07.103Z,999.38
2019-03-09T06:48:07.299Z,999.50
2019-03-09T06:49:07.082Z,999.56
2019-03-09T06:50:07.080Z,999.53
2019-03-09T06:51:07.070Z,999.53
2019-03-09T06:52:07.065Z,999.54
2019-03-09T06:53:07.099Z,999.53
2019-03-09T06:54:07.050Z,999.50
2019-03-09T06:55:07.039Z,999.53
2019-03-09T06:56:07.038Z,999.47
2019-03-09T06:57:13.793Z,999.37
2019-03-09T06:58:07.023Z,999.37
2019-03-09T06:59:07.010Z,999.36
2019-03-09T07:00:07.009Z,999.35
2019-03-09T07:01:06.998Z,999.43
2019-03-09T07:03:06.982Z,999.39
2019-03-09T07:04:06.981Z,999.44
2019-03-09T07:05:06.971Z,999.50
2019-03-09T07:07:06.958Z,999.49
2019-03-09T07:08:06.954Z,999.60
2019-03-09T07:09:06.945Z,999.59
2019-03-09T07:10:06.934Z,999.69
2019-03-09T07:12:06.922Z,999.68
2019-03-09T07:13:06.911Z,999.72
2019-03-09T07:14:07.110Z,999.76
2019-03-09T07:15:06.901Z,999.81
2019-03-09T07:16:06.891Z,999.87
2019-03-09T07:17:07.086Z,999.95
2019-03-09T07:18:06.884Z,999.70
2019-03-09T07:19:08.289Z,999.77
2019-03-09T07:20:12.659Z,999.73
2019-03-09T07:21:07.067Z,999.70
2019-03-09T07:22:06.847Z,999.60
2019-03-09T07:23:06.843Z,999.70
2019-03-09T07:24:06.838Z,999.75
2019-03-09T07:25:07.034Z,999.72
2019-03-09T07:26:07.027Z,999.73
2019-03-09T07:28:06.811Z,999.97
2019-03-09T07:29:07.007Z,1000.03
2019-03-09T07:31:06.785Z,999.98
2019-03-09T07:32:06.784Z,999.88
2019-03-09T07:33:06.775Z,1000.03
2019-03-09T07:34:06.768Z,999.99
2019-03-09T07:35:06.766Z,1000.04
2019-03-09T07:36:06.758Z,1000.10
2019-03-09T07:38:06.944Z,1000.12
2019-03-09T07:40:06.731Z,1000.06
2019-03-09T07:41:06.718Z,1000.13
2019-03-09T07:42:06.715Z,1000.06
2019-03-09T07:43:06.707Z,1000.12
2019-03-09T07:45:06.693Z,1000.18
2019-03-09T07:46:06.690Z,1000.23
2019-03-09T07:47:06.680Z,1000.22
2019-03-09T07:48:06.686Z,1000.28
2019-03-09T07:49:06.673Z,1000.17
2019-03-09T07:50:06.666Z,1000.16
2019-03-09T07:52:06.653Z,1000.12
2019-03-09T07:53:06.648Z,1000.13
2019-03-09T07:54:06.840Z,1000.11
2019-03-09T07:55:06.637Z,1000.08
2019-03-09T07:56:06.624Z,1000.24
2019-03-09T07:58:06.617Z,1000.27
2019-03-09T07:59:06.608Z,1000.26
2019-03-09T08:00:06.606Z,1000.19
2019-03-09T08:02:06.589Z,1000.30
2019-03-09T08:03:06.585Z,1000.22
2019-03-09T08:04:06.581Z,1000.30
2019-03-09T08:05:06.570Z,1000.25
2019-03-09T08:06:06.571Z,1000.24
2019-03-09T08:07:06.563Z,1000.21
2019-03-09T08:08:06.551Z,1000.32
2019-03-09T08:09:06.549Z,1000.28
2019-03-09T08:10:06.567Z,1000.32
2019-03-09T08:11:06.543Z,1000.24
2019-03-09T08:12:06.538Z,1000.18
2019-03-09T08:13:06.526Z,1000.09
2019-03-09T08:14:06.521Z,1000.06
2019-03-09T08:15:06.513Z,1000.17
2019-03-09T08:16:06.707Z,1000.28
2019-03-09T08:17:06.703Z,1000.13
2019-03-09T08:18:06.495Z,1000.15
2019-03-09T08:19:06.487Z,1000.28
2019-03-09T08:20:06.482Z,1000.10
2019-03-09T08:21:39.898Z,1000.15
2019-03-09T08:22:06.470Z,1000.16
2019-03-09T08:24:06.464Z,1000.18
2019-03-09T08:25:06.481Z,1000.20
2019-03-09T08:26:06.448Z,1000.30
2019-03-09T08:27:06.448Z,1000.36
2019-03-09T08:28:06.658Z,1000.26
2019-03-09T08:29:06.438Z,1000.16
2019-03-09T08:30:06.630Z,1000.16
2019-03-09T08:31:06.423Z,1000.12
2019-03-09T08:32:06.418Z,1000.22
2019-03-09T08:33:06.413Z,1000.20
2019-03-09T08:34:06.406Z,1000.13
2019-03-09T08:35:06.607Z,1000.11
2019-03-09T08:36:06.593Z,1000.21
2019-03-09T08:37:06.392Z,1000.11
2019-03-09T08:38:06.392Z,1000.14
2019-03-09T08:40:06.598Z,1000.17
2019-03-09T08:41:06.371Z,1000.17
2019-03-09T08:43:06.356Z,1000.20
2019-03-09T08:45:07.800Z,1000.11
2019-03-09T08:46:06.336Z,1000.07
2019-03-09T08:47:06.337Z,1000.22
2019-03-09T08:48:06.339Z,1000.26
2019-03-09T08:50:06.347Z,1000.27
2019-03-09T08:51:06.388Z,1000.29
2019-03-09T08:53:06.298Z,1000.24
2019-03-09T08:54:06.293Z,1000.31
2019-03-09T08:57:06.284Z,1000.17
2019-03-09T08:58:06.299Z,1000.21
2019-03-09T08:59:06.289Z,1000.17
2019-03-09T09:00:06.260Z,1000.13
2019-03-09T09:01:06.300Z,1000.26
2019-03-09T09:02:06.276Z,1000.13
2019-03-09T09:03:06.448Z,1000.12
2019-03-09T09:04:06.240Z,1000.10
2019-03-09T09:05:06.232Z,1000.02
2019-03-09T09:06:06.230Z,999.92
2019-03-09T09:07:06.229Z,1000.06
2019-03-09T09:08:06.448Z,1000.07
2019-03-09T09:09:06.212Z,1000.15
2019-03-09T09:10:06.210Z,999.83
2019-03-09T09:11:06.207Z,999.94
2019-03-09T09:12:06.197Z,999.88
2019-03-09T09:13:06.196Z,999.92
2019-03-09T09:14:06.195Z,1000.03
2019-03-09T09:16:06.378Z,1000.02
2019-03-09T09:17:06.173Z,1000.19
2019-03-09T09:18:06.169Z,999.82
2019-03-09T09:20:06.157Z,1000.05
2019-03-09T09:22:06.928Z,999.91
2019-03-09T09:23:06.145Z,1000.06
2019-03-09T09:24:06.141Z,1000.10
2019-03-09T09:25:06.138Z,1000.07
2019-03-09T09:26:06.126Z,999.93
2019-03-09T09:27:06.335Z,1000.03
2019-03-09T09:28:06.119Z,999.97
2019-03-09T09:29:06.117Z,1000.01
2019-03-09T09:30:06.108Z,999.94
2019-03-09T09:31:06.104Z,999.92
2019-03-09T09:32:06.299Z,1000.07
2019-03-09T09:33:06.093Z,1000.02
2019-03-09T09:34:06.090Z,1000.04
2019-03-09T09:35:06.290Z,1000.10
2019-03-09T09:36:06.281Z,999.93
2019-03-09T09:37:06.281Z,999.99
2019-03-09T09:38:06.275Z,999.98
2019-03-09T09:39:06.068Z,1000.06
2019-03-09T09:41:06.054Z,1000.21
2019-03-09T09:42:06.258Z,1000.24
2019-03-09T09:43:06.266Z,1000.22
2019-03-09T09:44:06.048Z,1000.21
2019-03-09T09:45:06.035Z,1000.19
2019-03-09T09:46:06.032Z,1000.25
2019-03-09T09:47:06.026Z,1000.17
2019-03-09T09:48:06.027Z,1000.26
2019-03-09T09:49:06.018Z,1000.21
2019-03-09T09:51:06.014Z,1000.16
2019-03-09T09:52:06.004Z,1000.22
2019-03-09T09:53:06.000Z,1000.31
2019-03-09T09:54:06.404Z,1000.22
2019-03-09T09:55:05.991Z,1000.20
2019-03-09T09:57:05.977Z,1000.12
2019-03-09T09:59:05.973Z,1000.31
2019-03-09T10:00:05.964Z,1000.23
2019-03-09T10:01:05.961Z,1000.16
2019-03-09T10:02:05.953Z,1000.15
2019-03-09T10:03:06.157Z,1000.19
2019-03-09T10:05:05.944Z,1000.12
2019-03-09T10:06:06.120Z,1000.06
2019-03-09T10:07:05.929Z,1000.12
2019-03-09T10:08:05.930Z,1000.07
2019-03-09T10:09:05.922Z,1000.06
2019-03-09T10:10:05.915Z,1000.04
2019-03-09T10:11:05.908Z,1000.02
2019-03-09T10:12:05.910Z,1000.02
2019-03-09T10:13:05.897Z,999.92
2019-03-09T10:14:05.895Z,999.89
2019-03-09T10:16:39.295Z,999.90
2019-03-09T10:17:06.083Z,999.92
2019-03-09T10:18:05.878Z,999.77
2019-03-09T10:19:05.872Z,999.84
2019-03-09T10:20:05.862Z,999.96
2019-03-09T10:21:05.863Z,999.82
2019-03-09T10:22:05.860Z,999.91
2019-03-09T10:24:06.051Z,999.90
2019-03-09T10:25:05.861Z,999.87
2019-03-09T10:27:05.830Z,999.97
2019-03-09T10:28:06.029Z,999.92
2019-03-09T10:29:05.818Z,999.97
2019-03-09T10:30:05.820Z,999.92
2019-03-09T10:31:05.810Z,999.94
2019-03-09T10:32:05.805Z,999.99
2019-03-09T10:33:05.804Z,1000.01
2019-03-09T10:34:05.795Z,1000.13
2019-03-09T10:35:05.796Z,1000.11
2019-03-09T10:36:05.992Z,1000.03
2019-03-09T10:37:05.782Z,1000.06
2019-03-09T10:38:05.784Z,1000.09
2019-03-09T10:39:05.976Z,999.94
2019-03-09T10:40:05.771Z,999.97
2019-03-09T10:42:05.763Z,1000.04
2019-03-09T10:43:05.756Z,1000.05
2019-03-09T10:44:05.959Z,1000.03
2019-03-09T10:45:05.755Z,999.96
2019-03-09T10:46:05.952Z,1000.06
2019-03-09T10:47:05.747Z,1000.09
2019-03-09T10:48:06.144Z,1000.10
2019-03-09T10:49:05.738Z,1000.20
2019-03-09T10:50:05.730Z,1000.06
2019-03-09T10:51:05.733Z,1000.04
2019-03-09T10:52:05.727Z,999.93
2019-03-09T10:53:05.724Z,1000.09
2019-03-09T10:54:05.730Z,999.95
2019-03-09T10:55:05.717Z,999.98
2019-03-09T10:56:05.717Z,1000.11
2019-03-09T10:57:05.710Z,999.95
2019-03-09T10:59:05.700Z,1000.09
2019-03-09T11:00:05.697Z,999.97
2019-03-09T11:01:05.688Z,1000.03
2019-03-09T11:02:05.689Z,1000.19
2019-03-09T11:03:05.684Z,1000.10
2019-03-09T11:05:05.673Z,1000.18
2019-03-09T11:07:05.670Z,1000.15
2019-03-09T11:08:05.666Z,1000.18
2019-03-09T11:09:05.863Z,1000.14
2019-03-09T11:10:05.907Z,1000.01
2019-03-09T11:11:05.650Z,999.98
2019-03-09T11:12:05.848Z,999.81
2019-03-09T11:13:05.644Z,999.81
2019-03-09T11:15:06.054Z,999.87
2019-03-09T11:17:05.627Z,999.79
2019-03-09T11:19:05.620Z,999.88
2019-03-09T11:21:05.615Z,999.83
2019-03-09T11:23:05.814Z,999.96
2019-03-09T11:24:05.604Z,999.98
2019-03-09T11:27:05.625Z,1000.03
2019-03-09T11:28:05.592Z,999.99
2019-03-09T11:29:05.594Z,999.99
2019-03-09T11:30:05.589Z,1000.13
2019-03-09T11:32:05.583Z,999.94
2019-03-09T11:33:05.582Z,999.96
2019-03-09T11:34:38.986Z,999.90
2019-03-09T11:35:05.781Z,999.86
2019-03-09T11:36:05.780Z,999.81
2019-03-09T11:37:05.571Z,999.84
2019-03-09T11:38:05.976Z,999.89
2019-03-09T11:39:05.563Z,999.97
2019-03-09T11:40:05.567Z,1000.02
2019-03-09T11:41:05.560Z,999.99
2019-03-09T11:42:05.564Z,1000.13
2019-03-09T11:43:05.559Z,1000.00
2019-03-09T11:44:05.757Z,1000.19
2019-03-09T11:45:38.757Z,1000.12
2019-03-09T11:46:05.753Z,1000.18
2019-03-09T11:48:05.542Z,999.99
2019-03-09T11:49:05.537Z,1000.06
2019-03-09T11:51:05.738Z,999.95
2019-03-09T11:52:05.526Z,999.94
2019-03-09T11:54:05.523Z,999.95
2019-03-09T11:55:05.518Z,999.95
2019-03-09T11:56:05.715Z,999.89
2019-03-09T11:57:05.514Z,999.81
2019-03-09T11:58:05.505Z,999.83
2019-03-09T11:59:05.505Z,999.90
2019-03-09T12:00:05.508Z,999.80
2019-03-09T12:01:05.499Z,999.83
2019-03-09T12:02:05.491Z,999.75
2019-03-09T12:03:05.491Z,999.76
2019-03-09T12:05:05.684Z,999.74
2019-03-09T12:06:05.484Z,999.78
2019-03-09T12:08:05.479Z,999.70
2019-03-09T12:09:05.468Z,999.75
2019-03-09T12:10:05.467Z,999.79
2019-03-09T12:11:05.469Z,999.61
2019-03-09T12:12:05.464Z,999.73
2019-03-09T12:13:05.461Z,999.66
2019-03-09T12:14:05.454Z,999.73
2019-03-09T12:15:05.664Z,999.67
2019-03-09T12:16:05.447Z,999.68
2019-03-09T12:17:12.742Z,999.56
2019-03-09T12:19:05.436Z,999.48
2019-03-09T12:20:05.441Z,999.51
2019-03-09T12:24:15.860Z,999.33
2019-03-09T12:25:05.426Z,999.31
2019-03-09T12:26:05.416Z,999.24
2019-03-09T12:27:05.427Z,999.14
2019-03-09T12:28:05.811Z,999.14
2019-03-09T12:29:05.607Z,999.25
2019-03-09T12:30:05.401Z,999.16
2019-03-09T12:31:05.400Z,999.25
2019-03-09T12:33:05.391Z,999.13
2019-03-09T12:34:05.590Z,999.19
2019-03-09T12:36:05.389Z,999.00
2019-03-09T12:37:05.386Z,998.94
2019-03-09T12:38:05.383Z,998.91
2019-03-09T12:39:05.384Z,998.98
2019-03-09T12:40:05.375Z,998.96
2019-03-09T12:41:05.578Z,998.97
2019-03-09T12:42:05.379Z,999.22
2019-03-09T12:43:05.367Z,998.86
2019-03-09T12:44:05.575Z,998.81
2019-03-09T12:45:05.364Z,998.68
2019-03-09T12:46:05.568Z,998.75
2019-03-09T12:47:05.566Z,998.71
2019-03-09T12:48:05.359Z,998.78
2019-03-09T12:49:05.355Z,998.61
2019-03-09T12:50:05.348Z,998.60
2019-03-09T12:51:05.352Z,998.52
2019-03-09T12:52:05.350Z,998.50
2019-03-09T12:54:05.342Z,998.51
2019-03-09T12:55:05.336Z,998.57
2019-03-09T12:56:05.340Z,998.47
2019-03-09T12:58:05.540Z,998.48
2019-03-09T12:59:05.327Z,998.40
2019-03-09T13:00:05.325Z,998.51
2019-03-09T13:01:05.324Z,998.48
2019-03-09T13:03:05.323Z,998.37
2019-03-09T13:04:05.314Z,998.27
2019-03-09T13:05:05.310Z,998.24
2019-03-09T13:06:05.314Z,998.11
2019-03-09T13:07:05.306Z,998.14
2019-03-09T13:08:05.503Z,997.95
2019-03-09T13:10:38.502Z,997.70
2019-03-09T13:12:05.297Z,997.59
2019-03-09T13:13:05.288Z,997.60
2019-03-09T13:14:05.284Z,997.52
2019-03-09T13:15:05.286Z,997.44
2019-03-09T13:16:05.325Z,997.50
2019-03-09T13:17:05.274Z,997.44
2019-03-09T13:18:05.670Z,997.36
2019-03-09T13:20:05.262Z,997.32
2019-03-09T13:21:05.264Z,997.18
2019-03-09T13:22:05.255Z,997.17
2019-03-09T13:23:05.251Z,997.15
2019-03-09T13:24:05.247Z,997.22
2019-03-09T13:25:05.242Z,997.00
2019-03-09T13:26:05.241Z,996.89
2019-03-09T13:27:05.237Z,997.09
2019-03-09T13:28:05.233Z,996.98
2019-03-09T13:30:05.221Z,997.12
2019-03-09T13:31:05.217Z,997.02
2019-03-09T13:32:05.217Z,996.93
2019-03-09T13:33:05.212Z,996.77
2019-03-09T13:34:05.196Z,996.72
2019-03-09T13:35:05.401Z,996.74
2019-03-09T13:36:05.192Z,996.91
2019-03-09T13:37:05.192Z,996.76
2019-03-09T13:38:05.180Z,996.76
2019-03-09T13:39:05.170Z,996.90
2019-03-09T13:40:05.370Z,996.86
2019-03-09T13:41:05.162Z,996.93
2019-03-09T13:42:05.152Z,996.88
2019-03-09T13:44:05.141Z,996.83
2019-03-09T13:45:05.134Z,996.77
2019-03-09T13:46:05.130Z,996.79
2019-03-09T13:47:05.127Z,996.88
2019-03-09T13:48:05.118Z,996.76
2019-03-09T13:49:05.116Z,996.74
2019-03-09T13:50:05.109Z,996.77
2019-03-09T13:51:05.099Z,996.71
2019-03-09T13:52:05.094Z,996.87
2019-03-09T13:53:05.288Z,996.90
2019-03-09T13:54:05.082Z,997.14
2019-03-09T13:55:05.069Z,997.17
2019-03-09T13:56:05.066Z,996.82
2019-03-09T13:57:06.267Z,996.82
2019-03-09T13:58:05.058Z,996.71
2019-03-09T13:59:05.052Z,996.90
2019-03-09T14:00:05.245Z,996.73
2019-03-09T14:01:05.039Z,996.88
2019-03-09T14:02:06.460Z,996.67
2019-03-09T14:04:05.025Z,996.81
2019-03-09T14:05:05.021Z,996.76
2019-03-09T14:06:05.020Z,996.74
2019-03-09T14:08:05.017Z,996.80
2019-03-09T14:09:05.018Z,996.74
2019-03-09T14:10:05.016Z,996.75
2019-03-09T14:11:05.018Z,996.70
2019-03-09T14:12:05.012Z,996.66
2019-03-09T14:13:05.220Z,996.64
2019-03-09T14:14:05.018Z,996.51
2019-03-09T14:15:05.022Z,996.58
2019-03-09T14:16:05.019Z,996.55
2019-03-09T14:17:05.019Z,996.52
2019-03-09T14:18:05.029Z,996.47
2019-03-09T14:19:05.025Z,996.39
2019-03-09T14:20:05.030Z,996.45
2019-03-09T14:21:05.034Z,996.34
2019-03-09T14:22:05.035Z,996.41
2019-03-09T14:23:05.037Z,996.30
2019-03-09T14:24:05.048Z,996.38
2019-03-09T14:25:05.456Z,996.25
2019-03-09T14:26:05.051Z,996.38
2019-03-09T14:27:05.054Z,996.36
2019-03-09T14:28:05.060Z,996.27
2019-03-09T14:29:05.074Z,996.26
2019-03-09T14:31:05.064Z,996.22